Vantage — PBMC — position and weather

sailwx.info

Track history (hours):
 
Tides and Currents Weather Stations Pressure Air Temp Water Temp Dewpoint Dewpoint Depression Visibility Wind Speed Wind Dir Waves Ship Positions

Vantage

Last reported at 2017-Nov-17 05:15 UTC. Time now 2017-Nov-21 05:57 UTC.
Position N 25°15' W 080°06'.

Length 100 m; draft 3.9 m.

Type: Cargo ship. MMSI: 244984986.

Date/timePositionNaut miles runAvg speedWind from/ knotsBaromVisibWave heightAir tempDewpointWater temp
2017-Nov-17 05:15N 25°15' W 080°06'312.4
2017-Nov-17 05:00N 25°18' W 080°05'613.0
2017-Nov-17 04:30N 25°24' W 080°02'714.4
2017-Nov-17 04:01N 25°31' W 080°03'612.5
2017-Nov-17 03:31N 25°37' W 080°02'612.1
2017-Nov-17 03:01N 25°43' W 080°02'612.6
2017-Nov-17 02:30N 25°49' W 080°03'713.5
2017-Nov-17 02:01N 25°56' W 080°03'714.3
2017-Nov-17 01:30N 26°03' W 080°04'3 6.7
2017-Nov-17 01:00N 26°05' W 080°07'0 0.0
2017-Nov-17 00:26N 26°05' W 080°07'0 0.0
2017-Nov-16 23:56N 26°05' W 080°07'0 0.0
2017-Nov-16 23:26N 26°05' W 080°07'0 0.0
2017-Nov-16 22:59N 26°05' W 080°07'0 0.0
2017-Nov-16 22:26N 26°05' W 080°07'0 0.0
2017-Nov-16 21:59N 26°05' W 080°07'0 0.0
2017-Nov-16 21:29N 26°05' W 080°07'0 0.0
2017-Nov-16 20:59N 26°05' W 080°07'0 0.0
2017-Nov-16 20:29N 26°05' W 080°07'0 0.1
2017-Nov-16 19:56N 26°05' W 080°07'0 0.0
2017-Nov-16 19:29N 26°05' W 080°07'0 0.0
2017-Nov-16 18:59N 26°05' W 080°07'0 0.0
2017-Nov-16 18:29N 26°05' W 080°07'0 0.0
2017-Nov-16 17:59N 26°05' W 080°07'0 0.0
2017-Nov-16 17:29N 26°05' W 080°07'0 0.0
2017-Nov-16 16:59N 26°05' W 080°07'0 0.0
2017-Nov-16 16:20N 26°05' W 080°07'0 0.0
2017-Nov-16 15:50N 26°05' W 080°07'0 0.0
2017-Nov-16 15:20N 26°05' W 080°07'0 0.0
2017-Nov-16 14:50N 26°05' W 080°07'0 0.0
2017-Nov-16 14:20N 26°05' W 080°07'0 0.0
2017-Nov-16 13:53N 26°05' W 080°07'0 0.0
2017-Nov-16 13:20N 26°05' W 080°07'0 0.0
2017-Nov-16 12:53N 26°05' W 080°07'0 0.0
2017-Nov-16 12:20N 26°05' W 080°07'0 0.0
2017-Nov-16 11:56N 26°05' W 080°07'0 0.0
2017-Nov-16 11:26N 26°05' W 080°07'0 0.0
2017-Nov-16 10:56N 26°05' W 080°07'0 0.0
2017-Nov-16 10:26N 26°05' W 080°07'0 0.0
2017-Nov-16 09:56N 26°05' W 080°07'0 0.0
2017-Nov-16 09:26N 26°05' W 080°07'0 0.0
2017-Nov-16 08:59N 26°05' W 080°07'0 0.0
2017-Nov-16 08:29N 26°05' W 080°07'0 0.0
2017-Nov-16 07:59N 26°05' W 080°07'0 0.0
2017-Nov-16 07:29N 26°05' W 080°07'0 0.0
2017-Nov-16 06:56N 26°05' W 080°07'0 0.0
2017-Nov-16 06:29N 26°05' W 080°07'0 0.0
2017-Nov-16 05:59N 26°05' W 080°07'0 0.0
2017-Nov-16 05:17N 26°05' W 080°07'0 0.0
2017-Nov-16 04:59N 26°05' W 080°07'0 0.0
2017-Nov-16 04:29N 26°05' W 080°07'0 0.0
2017-Nov-16 03:59N 26°05' W 080°07'0 0.0
2017-Nov-16 03:29N 26°05' W 080°07'0 0.0
2017-Nov-16 02:59N 26°05' W 080°07'0 0.0
2017-Nov-16 02:29N 26°05' W 080°07'0 0.2
2017-Nov-16 01:50N 26°05' W 080°07'0 0.0
2017-Nov-16 01:20N 26°05' W 080°07'0 0.0
2017-Nov-16 00:53N 26°05' W 080°07'0 0.0
2017-Nov-16 00:23N 26°05' W 080°07'0 0.0
2017-Nov-15 23:53N 26°05' W 080°07'0 0.0
2017-Nov-15 23:23N 26°05' W 080°07'0 0.0
2017-Nov-15 22:53N 26°05' W 080°07'0 0.0
2017-Nov-15 22:23N 26°05' W 080°07'0 0.0
2017-Nov-15 21:56N 26°05' W 080°07'0 0.0
2017-Nov-15 21:26N 26°05' W 080°07'0 0.0
2017-Nov-15 20:56N 26°05' W 080°07'0 0.0
2017-Nov-15 20:26N 26°05' W 080°07'0 0.0
2017-Nov-15 19:56N 26°05' W 080°07'0 0.0
2017-Nov-15 19:25N 26°05' W 080°07'2 3.6
2017-Nov-15 19:00N 26°06' W 080°06'5 9.9
2017-Nov-15 18:30N 26°01' W 080°03'611.2
2017-Nov-15 18:00N 25°56' W 080°03'510.9
2017-Nov-15 17:30N 25°50' W 080°04'5 9.3
2017-Nov-15 17:01N 25°46' W 080°06'4 7.9
2017-Nov-15 16:30N 25°46' W 080°10'0 0.0
2017-Nov-15 15:58N 25°46' W 080°10'0 0.0
2017-Nov-15 15:28N 25°46' W 080°10'0 0.0
2017-Nov-15 14:58N 25°46' W 080°10'0 0.0
2017-Nov-15 14:28N 25°46' W 080°10'0 0.0
2017-Nov-15 13:58N 25°46' W 080°10'0 0.0
2017-Nov-15 13:28N 25°46' W 080°10'0 0.0
2017-Nov-15 12:58N 25°46' W 080°10'0 0.0
2017-Nov-15 12:25N 25°46' W 080°10'0 0.0
2017-Nov-15 12:00N 25°46' W 080°10'2 4.6
2017-Nov-15 11:30N 25°46' W 080°08'5 9.3
2017-Nov-15 11:00N 25°45' W 080°03'612.2
2017-Nov-15 10:30N 25°39' W 080°01'612.4
2017-Nov-15 10:00N 25°33' W 079°59'612.3
2017-Nov-15 09:30N 25°27' W 079°58'  
2017-Nov-10 01:17N 25°14' W 080°06'311.2
2017-Nov-10 01:00N 25°17' W 080°05'510.8
2017-Nov-10 00:30N 25°22' W 080°03'611.4
2017-Nov-10 00:00N 25°28' W 080°02'611.5
2017-Nov-09 23:30N 25°33' W 080°02'611.7
2017-Nov-09 23:00N 25°39' W 080°02'612.0
2017-Nov-09 22:30N 25°45' W 080°02'611.8
2017-Nov-09 22:00N 25°51' W 080°02'611.6
2017-Nov-09 21:30N 25°57' W 080°02'611.8
2017-Nov-09 21:01N 26°03' W 080°04'4 8.0
2017-Nov-09 20:30N 26°05' W 080°07'0 0.2
2017-Nov-09 19:59N 26°05' W 080°07'0 0.0
2017-Nov-09 19:29N 26°05' W 080°07'0 0.0
2017-Nov-09 18:59N 26°05' W 080°07'0 0.0
2017-Nov-09 18:29N 26°05' W 080°07'0 0.0
2017-Nov-09 17:59N 26°05' W 080°07'0 0.0
2017-Nov-09 17:29N 26°05' W 080°07'0 0.0
2017-Nov-09 16:56N 26°05' W 080°07'0 0.0
2017-Nov-09 16:29N 26°05' W 080°07'0 0.0
2017-Nov-09 15:59N 26°05' W 080°07'0 0.0
2017-Nov-09 15:29N 26°05' W 080°07'0 0.0
2017-Nov-09 14:59N 26°05' W 080°07'0 0.0
2017-Nov-09 14:29N 26°05' W 080°07'0 0.0
2017-Nov-09 13:59N 26°05' W 080°07'0 0.0
2017-Nov-09 13:29N 26°05' W 080°07'0 0.0
2017-Nov-09 12:59N 26°05' W 080°07'0 0.0
2017-Nov-09 12:29N 26°05' W 080°07'0 0.0
2017-Nov-09 11:59N 26°05' W 080°07'0 0.0
2017-Nov-09 11:29N 26°05' W 080°07'0 0.0
2017-Nov-09 10:59N 26°05' W 080°07'0 0.0
2017-Nov-09 10:29N 26°05' W 080°07'0 0.0
2017-Nov-09 09:59N 26°05' W 080°07'0 0.0
2017-Nov-09 09:29N 26°05' W 080°07'0 0.0
2017-Nov-09 08:59N 26°05' W 080°07'0 0.0
2017-Nov-09 08:29N 26°05' W 080°07'0 0.0
2017-Nov-09 07:59N 26°05' W 080°07'0 0.0
2017-Nov-09 07:29N 26°05' W 080°07'0 0.0
2017-Nov-09 06:59N 26°05' W 080°07'0 0.0
2017-Nov-09 06:29N 26°05' W 080°07'0 0.0
2017-Nov-09 05:59N 26°05' W 080°07'0 0.0
2017-Nov-09 05:29N 26°05' W 080°07'0 0.0
2017-Nov-09 04:59N 26°05' W 080°07'0 0.0
2017-Nov-09 04:29N 26°05' W 080°07'0 0.0
2017-Nov-09 03:59N 26°05' W 080°07'0 0.0
2017-Nov-09 03:29N 26°05' W 080°07'0 0.0
2017-Nov-09 02:59N 26°05' W 080°07'0 0.0
2017-Nov-09 02:29N 26°05' W 080°07'0 0.0
2017-Nov-09 01:59N 26°05' W 080°07'0 0.0
2017-Nov-09 01:29N 26°05' W 080°07'0 0.0
2017-Nov-09 00:59N 26°05' W 080°07'0 0.0
2017-Nov-09 00:29N 26°05' W 080°07'0 0.0
2017-Nov-08 23:59N 26°05' W 080°07'0 0.0
2017-Nov-08 23:29N 26°05' W 080°07'0 0.0
2017-Nov-08 22:59N 26°05' W 080°07'0 0.0
2017-Nov-08 22:29N 26°05' W 080°07'0 0.0
2017-Nov-08 21:59N 26°05' W 080°07'0 0.0
2017-Nov-08 21:29N 26°05' W 080°07'0 0.0
2017-Nov-08 20:59N 26°05' W 080°07'0 0.0
2017-Nov-08 20:29N 26°05' W 080°07'0 0.0
2017-Nov-08 19:59N 26°05' W 080°07'0 0.0
2017-Nov-08 19:29N 26°05' W 080°07'0 0.0
2017-Nov-08 18:59N 26°05' W 080°07'0 0.0
2017-Nov-08 18:29N 26°05' W 080°07'0 0.0
2017-Nov-08 17:59N 26°05' W 080°07'0 0.0
2017-Nov-08 17:29N 26°05' W 080°07'0 0.0
2017-Nov-08 16:59N 26°05' W 080°07'0 0.0
2017-Nov-08 16:29N 26°05' W 080°07'0 0.0
2017-Nov-08 15:59N 26°05' W 080°07'0 0.0
2017-Nov-08 15:29N 26°05' W 080°07'0 0.0
2017-Nov-08 14:59N 26°05' W 080°07'0 0.0
2017-Nov-08 14:29N 26°05' W 080°07'0 0.0
2017-Nov-08 13:59N 26°05' W 080°07'0 0.0
2017-Nov-08 13:29N 26°05' W 080°07'0 0.0
2017-Nov-08 12:59N 26°05' W 080°07'0 0.0
2017-Nov-08 12:29N 26°05' W 080°07'0 0.0
2017-Nov-08 11:59N 26°05' W 080°07'0 0.0
2017-Nov-08 11:29N 26°05' W 080°07'0 0.0
2017-Nov-08 10:59N 26°05' W 080°07'0 0.0
2017-Nov-08 10:29N 26°05' W 080°07'0 0.0
2017-Nov-08 09:59N 26°05' W 080°07'0 0.0
2017-Nov-08 09:29N 26°05' W 080°07'0 0.0
2017-Nov-08 08:59N 26°05' W 080°07'0 0.0
2017-Nov-08 08:29N 26°05' W 080°07'0 0.0
2017-Nov-08 07:59N 26°05' W 080°07'0 0.0
2017-Nov-08 07:29N 26°05' W 080°07'0 0.0
2017-Nov-08 06:59N 26°05' W 080°07'0 0.0
2017-Nov-08 06:29N 26°05' W 080°07'0 0.0
2017-Nov-08 05:59N 26°05' W 080°07'0 0.0
2017-Nov-08 05:29N 26°05' W 080°07'0 0.0
2017-Nov-08 04:59N 26°05' W 080°07'0 0.0
2017-Nov-08 04:29N 26°05' W 080°07'0 0.0
2017-Nov-08 03:59N 26°05' W 080°07'0 0.0
2017-Nov-08 03:26N 26°05' W 080°07'0 0.0
2017-Nov-08 02:59N 26°05' W 080°07'0 0.5
2017-Nov-08 02:30N 26°06' W 080°07'2 4.9
2017-Nov-08 02:00N 26°07' W 080°05'0 0.2
2017-Nov-08 01:30N 26°07' W 080°05'0 0.0
2017-Nov-08 01:00N 26°07' W 080°05'0 0.0
2017-Nov-08 00:30N 26°07' W 080°05'0 0.0
2017-Nov-08 00:00N 26°07' W 080°05'0 0.0
2017-Nov-07 23:30N 26°07' W 080°05'0 0.0
2017-Nov-07 23:00N 26°07' W 080°05'0 0.0
2017-Nov-07 22:30N 26°07' W 080°05'0 0.0
2017-Nov-07 22:00N 26°07' W 080°05'0 0.0
2017-Nov-07 21:30N 26°07' W 080°05'0 0.0
2017-Nov-07 21:00N 26°07' W 080°05'0 0.0
2017-Nov-07 20:30N 26°07' W 080°05'0 0.0
2017-Nov-07 20:00N 26°07' W 080°05'0 0.0
2017-Nov-07 19:30N 26°07' W 080°05'0 0.0
2017-Nov-07 19:00N 26°07' W 080°05'0 0.2
2017-Nov-07 18:30N 26°07' W 080°05'4 8.7
2017-Nov-07 18:00N 26°03' W 080°03'713.6
2017-Nov-07 17:30N 25°56' W 080°03'713.4
2017-Nov-07 17:00N 25°49' W 080°04'5 9.7
2017-Nov-07 16:30N 25°46' W 080°08'2 4.1
2017-Nov-07 16:00N 25°46' W 080°10'0 0.0
2017-Nov-07 15:30N 25°46' W 080°10'0 0.0
2017-Nov-07 15:00N 25°46' W 080°10'0 0.0
2017-Nov-07 14:30N 25°46' W 080°10'0 0.0
2017-Nov-07 14:00N 25°46' W 080°10'0 0.0
2017-Nov-07 13:30N 25°46' W 080°10'0 0.0
2017-Nov-07 13:00N 25°46' W 080°10'0 0.0
2017-Nov-07 12:30N 25°46' W 080°10'0 0.0
2017-Nov-07 12:00N 25°46' W 080°10'2 3.2
2017-Nov-07 11:30N 25°46' W 080°08'510.8
2017-Nov-07 11:00N 25°45' W 080°02'713.1
2017-Nov-07 10:30N 25°39' W 080°00'815.0
2017-Nov-07 10:00N 25°32' W 079°60'714.9
2017-Nov-07 09:30N 25°24' W 079°60'714.4
2017-Nov-07 09:00N 25°17' W 080°02'  
Track history (hours):
 
Tides and Currents Weather Stations Pressure Air Temp Water Temp Dewpoint Dewpoint Depression Visibility Wind Speed Wind Dir Waves Ship Positions

Vantage

Last reported at 2017-Nov-17 05:15 UTC. Time now 2017-Nov-21 05:57 UTC.
Position N 25°15' W 080°06'.

Length 100 m; draft 3.9 m.

Type: Cargo ship. MMSI: 244984986.

Date/timePositionNaut miles runAvg speedWind from/ knotsBaromVisibWave heightAir tempDewpointWater temp
2017-Nov-17 05:15N 25°15' W 080°06'312.4
2017-Nov-17 05:00N 25°18' W 080°05'613.0
2017-Nov-17 04:30N 25°24' W 080°02'714.4
2017-Nov-17 04:01N 25°31' W 080°03'612.5
2017-Nov-17 03:31N 25°37' W 080°02'612.1
2017-Nov-17 03:01N 25°43' W 080°02'612.6
2017-Nov-17 02:30N 25°49' W 080°03'713.5
2017-Nov-17 02:01N 25°56' W 080°03'714.3
2017-Nov-17 01:30N 26°03' W 080°04'3 6.7
2017-Nov-17 01:00N 26°05' W 080°07'0 0.0
2017-Nov-17 00:26N 26°05' W 080°07'0 0.0
2017-Nov-16 23:56N 26°05' W 080°07'0 0.0
2017-Nov-16 23:26N 26°05' W 080°07'0 0.0
2017-Nov-16 22:59N 26°05' W 080°07'0 0.0
2017-Nov-16 22:26N 26°05' W 080°07'0 0.0
2017-Nov-16 21:59N 26°05' W 080°07'0 0.0
2017-Nov-16 21:29N 26°05' W 080°07'0 0.0
2017-Nov-16 20:59N 26°05' W 080°07'0 0.0
2017-Nov-16 20:29N 26°05' W 080°07'0 0.1
2017-Nov-16 19:56N 26°05' W 080°07'0 0.0
2017-Nov-16 19:29N 26°05' W 080°07'0 0.0
2017-Nov-16 18:59N 26°05' W 080°07'0 0.0
2017-Nov-16 18:29N 26°05' W 080°07'0 0.0
2017-Nov-16 17:59N 26°05' W 080°07'0 0.0
2017-Nov-16 17:29N 26°05' W 080°07'0 0.0
2017-Nov-16 16:59N 26°05' W 080°07'0 0.0
2017-Nov-16 16:20N 26°05' W 080°07'0 0.0
2017-Nov-16 15:50N 26°05' W 080°07'0 0.0
2017-Nov-16 15:20N 26°05' W 080°07'0 0.0
2017-Nov-16 14:50N 26°05' W 080°07'0 0.0
2017-Nov-16 14:20N 26°05' W 080°07'0 0.0
2017-Nov-16 13:53N 26°05' W 080°07'0 0.0
2017-Nov-16 13:20N 26°05' W 080°07'0 0.0
2017-Nov-16 12:53N 26°05' W 080°07'0 0.0
2017-Nov-16 12:20N 26°05' W 080°07'0 0.0
2017-Nov-16 11:56N 26°05' W 080°07'0 0.0
2017-Nov-16 11:26N 26°05' W 080°07'0 0.0
2017-Nov-16 10:56N 26°05' W 080°07'0 0.0
2017-Nov-16 10:26N 26°05' W 080°07'0 0.0
2017-Nov-16 09:56N 26°05' W 080°07'0 0.0
2017-Nov-16 09:26N 26°05' W 080°07'0 0.0
2017-Nov-16 08:59N 26°05' W 080°07'0 0.0
2017-Nov-16 08:29N 26°05' W 080°07'0 0.0
2017-Nov-16 07:59N 26°05' W 080°07'0 0.0
2017-Nov-16 07:29N 26°05' W 080°07'0 0.0
2017-Nov-16 06:56N 26°05' W 080°07'0 0.0
2017-Nov-16 06:29N 26°05' W 080°07'0 0.0
2017-Nov-16 05:59N 26°05' W 080°07'0 0.0
2017-Nov-16 05:17N 26°05' W 080°07'0 0.0
2017-Nov-16 04:59N 26°05' W 080°07'0 0.0
2017-Nov-16 04:29N 26°05' W 080°07'0 0.0
2017-Nov-16 03:59N 26°05' W 080°07'0 0.0
2017-Nov-16 03:29N 26°05' W 080°07'0 0.0
2017-Nov-16 02:59N 26°05' W 080°07'0 0.0
2017-Nov-16 02:29N 26°05' W 080°07'0 0.2
2017-Nov-16 01:50N 26°05' W 080°07'0 0.0
2017-Nov-16 01:20N 26°05' W 080°07'0 0.0
2017-Nov-16 00:53N 26°05' W 080°07'0 0.0
2017-Nov-16 00:23N 26°05' W 080°07'0 0.0
2017-Nov-15 23:53N 26°05' W 080°07'0 0.0
2017-Nov-15 23:23N 26°05' W 080°07'0 0.0
2017-Nov-15 22:53N 26°05' W 080°07'0 0.0
2017-Nov-15 22:23N 26°05' W 080°07'0 0.0
2017-Nov-15 21:56N 26°05' W 080°07'0 0.0
2017-Nov-15 21:26N 26°05' W 080°07'0 0.0
2017-Nov-15 20:56N 26°05' W 080°07'0 0.0
2017-Nov-15 20:26N 26°05' W 080°07'0 0.0
2017-Nov-15 19:56N 26°05' W 080°07'0 0.0
2017-Nov-15 19:25N 26°05' W 080°07'2 3.6
2017-Nov-15 19:00N 26°06' W 080°06'5 9.9
2017-Nov-15 18:30N 26°01' W 080°03'611.2
2017-Nov-15 18:00N 25°56' W 080°03'510.9
2017-Nov-15 17:30N 25°50' W 080°04'5 9.3
2017-Nov-15 17:01N 25°46' W 080°06'4 7.9
2017-Nov-15 16:30N 25°46' W 080°10'0 0.0
2017-Nov-15 15:58N 25°46' W 080°10'0 0.0
2017-Nov-15 15:28N 25°46' W 080°10'0 0.0
2017-Nov-15 14:58N 25°46' W 080°10'0 0.0
2017-Nov-15 14:28N 25°46' W 080°10'0 0.0
2017-Nov-15 13:58N 25°46' W 080°10'0 0.0
2017-Nov-15 13:28N 25°46' W 080°10'0 0.0
2017-Nov-15 12:58N 25°46' W 080°10'0 0.0
2017-Nov-15 12:25N 25°46' W 080°10'0 0.0
2017-Nov-15 12:00N 25°46' W 080°10'2 4.6
2017-Nov-15 11:30N 25°46' W 080°08'5 9.3
2017-Nov-15 11:00N 25°45' W 080°03'612.2
2017-Nov-15 10:30N 25°39' W 080°01'612.4
2017-Nov-15 10:00N 25°33' W 079°59'612.3
2017-Nov-15 09:30N 25°27' W 079°58'  
2017-Nov-10 01:17N 25°14' W 080°06'311.2
2017-Nov-10 01:00N 25°17' W 080°05'510.8
2017-Nov-10 00:30N 25°22' W 080°03'611.4
2017-Nov-10 00:00N 25°28' W 080°02'611.5
2017-Nov-09 23:30N 25°33' W 080°02'611.7
2017-Nov-09 23:00N 25°39' W 080°02'612.0
2017-Nov-09 22:30N 25°45' W 080°02'611.8
2017-Nov-09 22:00N 25°51' W 080°02'611.6
2017-Nov-09 21:30N 25°57' W 080°02'611.8
2017-Nov-09 21:01N 26°03' W 080°04'4 8.0
2017-Nov-09 20:30N 26°05' W 080°07'0 0.2
2017-Nov-09 19:59N 26°05' W 080°07'0 0.0
2017-Nov-09 19:29N 26°05' W 080°07'0 0.0
2017-Nov-09 18:59N 26°05' W 080°07'0 0.0
2017-Nov-09 18:29N 26°05' W 080°07'0 0.0
2017-Nov-09 17:59N 26°05' W 080°07'0 0.0
2017-Nov-09 17:29N 26°05' W 080°07'0 0.0
2017-Nov-09 16:56N 26°05' W 080°07'0 0.0
2017-Nov-09 16:29N 26°05' W 080°07'0 0.0
2017-Nov-09 15:59N 26°05' W 080°07'0 0.0
2017-Nov-09 15:29N 26°05' W 080°07'0 0.0
2017-Nov-09 14:59N 26°05' W 080°07'0 0.0
2017-Nov-09 14:29N 26°05' W 080°07'0 0.0
2017-Nov-09 13:59N 26°05' W 080°07'0 0.0
2017-Nov-09 13:29N 26°05' W 080°07'0 0.0
2017-Nov-09 12:59N 26°05' W 080°07'0 0.0
2017-Nov-09 12:29N 26°05' W 080°07'0 0.0
2017-Nov-09 11:59N 26°05' W 080°07'0 0.0
2017-Nov-09 11:29N 26°05' W 080°07'0 0.0
2017-Nov-09 10:59N 26°05' W 080°07'0 0.0
2017-Nov-09 10:29N 26°05' W 080°07'0 0.0
2017-Nov-09 09:59N 26°05' W 080°07'0 0.0
2017-Nov-09 09:29N 26°05' W 080°07'0 0.0
2017-Nov-09 08:59N 26°05' W 080°07'0 0.0
2017-Nov-09 08:29N 26°05' W 080°07'0 0.0
2017-Nov-09 07:59N 26°05' W 080°07'0 0.0
2017-Nov-09 07:29N 26°05' W 080°07'0 0.0
2017-Nov-09 06:59N 26°05' W 080°07'0 0.0
2017-Nov-09 06:29N 26°05' W 080°07'0 0.0
2017-Nov-09 05:59N 26°05' W 080°07'0 0.0
2017-Nov-09 05:29N 26°05' W 080°07'0 0.0
2017-Nov-09 04:59N 26°05' W 080°07'0 0.0
2017-Nov-09 04:29N 26°05' W 080°07'0 0.0
2017-Nov-09 03:59N 26°05' W 080°07'0 0.0
2017-Nov-09 03:29N 26°05' W 080°07'0 0.0
2017-Nov-09 02:59N 26°05' W 080°07'0 0.0
2017-Nov-09 02:29N 26°05' W 080°07'0 0.0
2017-Nov-09 01:59N 26°05' W 080°07'0 0.0
2017-Nov-09 01:29N 26°05' W 080°07'0 0.0
2017-Nov-09 00:59N 26°05' W 080°07'0 0.0
2017-Nov-09 00:29N 26°05' W 080°07'0 0.0
2017-Nov-08 23:59N 26°05' W 080°07'0 0.0
2017-Nov-08 23:29N 26°05' W 080°07'0 0.0
2017-Nov-08 22:59N 26°05' W 080°07'0 0.0
2017-Nov-08 22:29N 26°05' W 080°07'0 0.0
2017-Nov-08 21:59N 26°05' W 080°07'0 0.0
2017-Nov-08 21:29N 26°05' W 080°07'0 0.0
2017-Nov-08 20:59N 26°05' W 080°07'0 0.0
2017-Nov-08 20:29N 26°05' W 080°07'0 0.0
2017-Nov-08 19:59N 26°05' W 080°07'0 0.0
2017-Nov-08 19:29N 26°05' W 080°07'0 0.0
2017-Nov-08 18:59N 26°05' W 080°07'0 0.0
2017-Nov-08 18:29N 26°05' W 080°07'0 0.0
2017-Nov-08 17:59N 26°05' W 080°07'0 0.0
2017-Nov-08 17:29N 26°05' W 080°07'0 0.0
2017-Nov-08 16:59N 26°05' W 080°07'0 0.0
2017-Nov-08 16:29N 26°05' W 080°07'0 0.0
2017-Nov-08 15:59N 26°05' W 080°07'0 0.0
2017-Nov-08 15:29N 26°05' W 080°07'0 0.0
2017-Nov-08 14:59N 26°05' W 080°07'0 0.0
2017-Nov-08 14:29N 26°05' W 080°07'0 0.0
2017-Nov-08 13:59N 26°05' W 080°07'0 0.0
2017-Nov-08 13:29N 26°05' W 080°07'0 0.0
2017-Nov-08 12:59N 26°05' W 080°07'0 0.0
2017-Nov-08 12:29N 26°05' W 080°07'0 0.0
2017-Nov-08 11:59N 26°05' W 080°07'0 0.0
2017-Nov-08 11:29N 26°05' W 080°07'0 0.0
2017-Nov-08 10:59N 26°05' W 080°07'0 0.0
2017-Nov-08 10:29N 26°05' W 080°07'0 0.0
2017-Nov-08 09:59N 26°05' W 080°07'0 0.0
2017-Nov-08 09:29N 26°05' W 080°07'0 0.0
2017-Nov-08 08:59N 26°05' W 080°07'0 0.0
2017-Nov-08 08:29N 26°05' W 080°07'0 0.0
2017-Nov-08 07:59N 26°05' W 080°07'0 0.0
2017-Nov-08 07:29N 26°05' W 080°07'0 0.0
2017-Nov-08 06:59N 26°05' W 080°07'0 0.0
2017-Nov-08 06:29N 26°05' W 080°07'0 0.0
2017-Nov-08 05:59N 26°05' W 080°07'0 0.0
2017-Nov-08 05:29N 26°05' W 080°07'0 0.0
2017-Nov-08 04:59N 26°05' W 080°07'0 0.0
2017-Nov-08 04:29N 26°05' W 080°07'0 0.0
2017-Nov-08 03:59N 26°05' W 080°07'0 0.0
2017-Nov-08 03:26N 26°05' W 080°07'0 0.0
2017-Nov-08 02:59N 26°05' W 080°07'0 0.5
2017-Nov-08 02:30N 26°06' W 080°07'2 4.9
2017-Nov-08 02:00N 26°07' W 080°05'0 0.2
2017-Nov-08 01:30N 26°07' W 080°05'0 0.0
2017-Nov-08 01:00N 26°07' W 080°05'0 0.0
2017-Nov-08 00:30N 26°07' W 080°05'0 0.0
2017-Nov-08 00:00N 26°07' W 080°05'0 0.0
2017-Nov-07 23:30N 26°07' W 080°05'0 0.0
2017-Nov-07 23:00N 26°07' W 080°05'0 0.0
2017-Nov-07 22:30N 26°07' W 080°05'0 0.0
2017-Nov-07 22:00N 26°07' W 080°05'0 0.0
2017-Nov-07 21:30N 26°07' W 080°05'0 0.0
2017-Nov-07 21:00N 26°07' W 080°05'0 0.0
2017-Nov-07 20:30N 26°07' W 080°05'0 0.0
2017-Nov-07 20:00N 26°07' W 080°05'0 0.0
2017-Nov-07 19:30N 26°07' W 080°05'0 0.0
2017-Nov-07 19:00N 26°07' W 080°05'0 0.2
2017-Nov-07 18:30N 26°07' W 080°05'4 8.7
2017-Nov-07 18:00N 26°03' W 080°03'713.6
2017-Nov-07 17:30N 25°56' W 080°03'713.4
2017-Nov-07 17:00N 25°49' W 080°04'5 9.7
2017-Nov-07 16:30N 25°46' W 080°08'2 4.1
2017-Nov-07 16:00N 25°46' W 080°10'0 0.0
2017-Nov-07 15:30N 25°46' W 080°10'0 0.0
2017-Nov-07 15:00N 25°46' W 080°10'0 0.0
2017-Nov-07 14:30N 25°46' W 080°10'0 0.0
2017-Nov-07 14:00N 25°46' W 080°10'0 0.0
2017-Nov-07 13:30N 25°46' W 080°10'0 0.0
2017-Nov-07 13:00N 25°46' W 080°10'0 0.0
2017-Nov-07 12:30N 25°46' W 080°10'0 0.0
2017-Nov-07 12:00N 25°46' W 080°10'2 3.2
2017-Nov-07 11:30N 25°46' W 080°08'510.8
2017-Nov-07 11:00N 25°45' W 080°02'713.1
2017-Nov-07 10:30N 25°39' W 080°00'815.0
2017-Nov-07 10:00N 25°32' W 079°60'714.9
2017-Nov-07 09:30N 25°24' W 079°60'714.4
2017-Nov-07 09:00N 25°17' W 080°02'  

Dump ship's entire track history